Latest Coastal Weather Observations for Aireys Inlet

IDV60701

Issued at 8:11 am EST Tuesday 31 May 2016 (issued every 10 minutes, with the page automatically refreshed every 10 minutes)

About coastal observations | Map of coastal stations | Coastal observations for VIC | Marine services | Other Formats
Station Details ID: 090180 Name: AIREYS INLET Lat: -38.46 Lon: 144.09 Height: 95.0 m
Data from the previous 72 hours. | See also: Recent months at Aireys Inlet
Date/Time
EST
Temp

°C
Wind Pressure Rain
since 9am
mm
Weather Cloud Vis
km
Sea
Height
m
Swell
Dir
 
Speed
knots
Gust
knots
hPa Trend Height
m
Period
s
Dir
31/08:00am 5.7 NNW 7 8 - - - - - - - - - -
31/07:30am 6.0 NNW 7 9 - - - - - - - - - -
31/07:00am 5.5 NNW 7 8 - - - - - - - - - -
31/06:30am 5.7 NNW 5 7 - - - - - - - - - -
31/06:00am 6.2 NNW 4 5 - - - - - - - - - -
31/05:30am 6.4 NNW 5 6 - - - - - - - - - -
31/05:00am 7.0 NW 7 8 - - - - - - - - - -
31/04:30am 6.8 NW 5 7 - - - - - - - - - -
31/04:00am 6.4 NW 7 8 - - - - - - - - - -
31/03:30am 6.6 NNW 6 8 - - - - - - - - - -
31/03:00am 6.7 NNW 6 7 - - - - - - - - - -
31/02:30am 7.3 NNW 4 5 - - - - - - - - - -
31/02:00am 8.0 N 4 5 - - - - - - - - - -
31/01:30am 8.1 N 4 5 - - - - - - - - - -
31/01:00am 8.0 N 3 4 - - - - - - - - - -
31/12:30am 8.3 N 4 5 - - - - - - - - - -
31/12:00am 8.3 N 3 4 - - - - - - - - - -
 
Date/Time
EST
Temp

°C
Wind Pressure Rain
since 9am
mm
Weather Cloud Vis
km
Sea
Height
m
Swell
Dir
 
Speed
knots
Gust
knots
hPa Trend Height
m
Period
s
Dir
30/11:30pm 8.3 N 4 4 - - - - - - - - - -
30/11:00pm 8.1 N 3 4 - - - - - - - - - -
30/10:30pm 8.1 N 4 4 - - 0.0 - - - - - - -
30/10:00pm 8.1 N 3 4 - - 0.0 - - - - - - -
30/09:30pm 8.0 N 3 4 - - 0.0 - - - - - - -
30/09:00pm 7.6 NNW 4 5 - - 0.0 - - - - - - -
30/08:30pm 8.0 NNW 4 5 - - 0.0 - - - - - - -
30/08:00pm 8.0 N 4 4 - - 0.0 - - - - - - -
30/07:30pm 8.3 N 3 3 - - 0.0 - - - - - - -
30/07:00pm 8.4 N 3 3 - - 0.0 - - - - - - -
30/06:30pm 8.8 NNE 2 3 - - 0.0 - - - - - - -
30/06:00pm 9.3 N 2 3 - - 0.0 - - - - - - -
30/05:30pm 10.1 ENE 4 7 - - 0.0 - - - - - - -
30/05:00pm 10.7 E 4 7 - - 0.0 - - - - - - -
30/04:30pm 11.1 ENE 5 8 - - 0.0 - - - - - - -
30/04:00pm 11.6 ENE 6 9 - - 0.0 - - - - - - -
30/03:30pm 12.0 ENE 6 9 - - 0.0 - - - - - - -
30/03:00pm 12.3 ENE 6 10 - - 0.0 - - - - - - -
30/02:30pm 12.4 E 6 9 - - 0.0 - - - - - - -
30/02:00pm 12.4 E 6 10 - - 0.0 - - - - - - -
30/01:30pm 12.7 ENE 6 12 - - 0.0 - - - - - - -
30/01:00pm 13.4 E 7 11 - - 0.0 - - - - - - -
30/12:30pm 13.4 ENE 5 9 - - 0.0 - - - - - - -
30/12:00pm 13.2 E 6 10 - - 0.0 - - - - - - -
30/11:30am 13.4 NE 5 10 - - 0.0 - - - - - - -
30/11:00am 12.8 NNE 5 8 - - 0.0 - - - - - - -
30/10:30am 12.6 N 4 5 - - 0.0 - - - - - - -
30/10:00am 11.3 N 2 4 - - 0.0 - - - - - - -
30/09:30am 9.8 NW 4 5 - - 0.0 - - - - - - -
30/09:00am 8.5 NW 6 8 - - 0.0 - - - - - - -
30/08:30am 8.2 NW 6 7 - - 0.0 - - - - - - -
30/08:00am 7.4 NW 6 8 - - 0.0 - - - - - - -
30/07:30am 7.3 NW 7 9 - - 0.0 - - - - - - -
30/07:00am 6.9 NW 8 11 - - 0.0 - - - - - - -
30/06:30am 6.2 NW 8 11 - - 0.0 - - - - - - -
30/06:00am 5.9 NW 7 10 - - 0.0 - - - - - - -
30/05:30am 6.1 NW 8 10 - - 0.0 - - - - - - -
30/05:00am 6.1 NW 9 11 - - 0.0 - - - - - - -
30/04:30am 6.7 NW 9 11 - - 0.0 - - - - - - -
30/04:00am 6.7 NW 8 11 - - 0.0 - - - - - - -
30/03:30am 6.8 NW 9 11 - - 0.0 - - - - - - -
30/03:00am 7.3 NW 10 12 - - 0.0 - - - - - - -
30/02:30am 7.5 NW 10 12 - - 0.0 - - - - - - -
30/02:00am 7.1 NW 9 11 - - 0.0 - - - - - - -
30/01:30am 6.2 NW 7 9 - - 0.0 - - - - - - -
30/01:00am 6.7 NNW 7 8 - - 0.0 - - - - - - -
30/12:30am 6.8 NNW 7 9 - - 0.0 - - - - - - -
30/12:00am 6.4 NNW 7 9 - - 0.0 - - - - - - -
 
Date/Time
EST
Temp

°C
Wind Pressure Rain
since 9am
mm
Weather Cloud Vis
km
Sea
Height
m
Swell
Dir
 
Speed
knots
Gust
knots
hPa Trend Height
m
Period
s
Dir
29/11:30pm 6.6 NNW 7 8 - - 0.0 - - - - - - -
29/11:00pm 6.9 NNW 5 7 - - 0.0 - - - - - - -
29/10:30pm 7.3 NNW 4 5 - - 0.0 - - - - - - -
29/10:00pm 7.9 NNW 3 5 - - 0.0 - - - - - - -
29/09:30pm 8.6 NNW 4 5 - - 0.0 - - - - - - -
29/09:00pm 9.1 NNW 4 5 - - 0.0 - - - - - - -
29/08:30pm 9.6 NW 4 5 - - 0.0 - - - - - - -
29/08:00pm 9.8 NW 6 8 - - 0.0 - - - - - - -
29/07:30pm 9.9 NW 6 7 - - 0.0 - - - - - - -
29/07:00pm 10.2 WNW 4 6 - - 0.0 - - - - - - -
29/06:30pm 10.6 WNW 6 8 - - 0.0 - - - - - - -
29/06:00pm 11.0 W 5 7 - - 0.0 - - - - - - -
29/05:30pm 10.8 WSW 4 6 - - 0.0 - - - - - - -
29/05:00pm 10.9 WNW 4 6 - - 0.0 - - - - - - -
29/04:30pm 11.3 W 3 4 - - 0.0 - - - - - - -
29/04:00pm 11.6 SSW 4 6 - - 0.0 - - - - - - -
29/03:30pm 11.9 SSW 6 9 - - 0.0 - - - - - - -
29/03:00pm 11.9 SSW 8 11 - - 0.0 - - - - - - -
29/02:30pm 12.1 SSW 7 12 - - 0.0 - - - - - - -
29/02:00pm 12.1 SSW 8 13 - - 0.0 - - - - - - -
29/01:30pm 12.2 SW 6 8 - - 0.0 - - - - - - -
29/01:00pm 12.3 SW 6 11 - - 0.0 - - - - - - -
29/12:30pm 12.1 WSW 6 8 - - 0.0 - - - - - - -
29/12:00pm 11.8 WSW 6 10 - - 0.0 - - - - - - -
29/11:30am 11.8 W 5 7 - - 0.0 - - - - - - -
29/11:00am 11.8 W 4 7 - - 0.0 - - - - - - -
29/10:30am 11.3 WSW 8 11 - - 0.0 - - - - - - -
29/10:00am 10.9 W 9 14 - - 0.0 - - - - - - -
29/09:30am 10.5 W 8 11 - - 0.0 - - - - - - -
29/09:00am 10.3 W 9 11 - - 0.2 - - - - - - -
29/08:30am 10.0 W 7 10 - - 0.2 - - - - - - -
29/08:00am 9.8 W 7 9 - - 0.2 - - - - - - -
29/07:30am 9.6 WNW 7 11 - - 0.2 - - - - - - -
29/07:00am 9.8 W 9 11 - - 0.2 - - - - - - -
29/06:30am 9.8 W 10 14 - - 0.2 - - - - - - -
29/06:00am 9.7 W 9 12 - - 0.2 - - - - - - -
29/05:30am 9.7 W 8 11 - - 0.2 - - - - - - -
29/05:00am 9.7 W 9 13 - - 0.2 - - - - - - -
29/04:30am 9.4 WNW 6 9 - - 0.2 - - - - - - -
29/04:00am 9.4 WNW 7 9 - - 0.2 - - - - - - -
29/03:30am 9.5 W 9 12 - - 0.2 - - - - - - -
29/03:00am 9.3 WNW 9 11 - - 0.2 - - - - - - -
29/02:30am 8.8 WNW 8 12 - - 0.2 - - - - - - -
29/02:00am 9.0 WNW 9 11 - - 0.2 - - - - - - -
29/01:30am 9.2 W 8 11 - - 0.2 - - - - - - -
29/01:00am 9.2 WNW 9 12 - - 0.2 - - - - - - -
29/12:30am 9.4 WNW 8 12 - - 0.2 - - - - - - -
29/12:00am 9.2 WNW 8 11 - - 0.2 - - - - - - -
 
Date/Time
EST
Temp

°C
Wind Pressure Rain
since 9am
mm
Weather Cloud Vis
km
Sea
Height
m
Swell
Dir
 
Speed
knots
Gust
knots
hPa Trend Height
m
Period
s
Dir
28/11:30pm 10.0 W 11 16 - - 0.2 - - - - - - -
28/11:00pm 10.0 W 11 14 - - 0.2 - - - - - - -
28/10:30pm 9.8 W 10 14 - - 0.2 - - - - - - -
28/10:00pm 9.9 W 10 12 - - 0.2 - - - - - - -
28/09:30pm 10.2 W 11 16 - - 0.2 - - - - - - -
28/09:00pm 10.1 W 10 13 - - 0.2 - - - - - - -
28/08:30pm 10.1 W 8 12 - - 0.2 - - - - - - -
28/08:00pm 10.2 W 8 12 - - 0.2 - - - - - - -
28/07:30pm 10.3 WSW 11 16 - - 0.2 - - - - - - -
28/07:00pm 9.9 WSW 10 15 - - 0.2 - - - - - - -
28/06:30pm 9.8 WSW 16 23 - - 0.2 - - - - - - -
28/06:00pm 9.8 W 10 14 - - 0.2 - - - - - - -
28/05:30pm 10.0 WSW 9 13 - - 0.2 - - - - - - -
28/05:00pm 10.7 WSW 11 16 - - 0.2 - - - - - - -
28/04:30pm 10.9 WSW 11 17 - - 0.2 - - - - - - -
28/04:00pm 11.8 WSW 10 15 - - 0.2 - - - - - - -
28/03:30pm 11.8 SW 15 23 - - 0.2 - - - - - - -
28/03:00pm 12.4 WSW 13 21 - - 0.2 - - - - - - -
28/02:30pm 13.6 SW 12 19 - - 0.2 - - - - - - -
28/02:00pm 12.9 SW 15 22 - - 0.2 - - - - - - -
28/01:30pm 13.2 SW 15 21 - - 0.2 - - - - - - -
28/01:00pm 13.4 SW 15 23 - - 0.2 - - - - - - -
28/12:30pm 12.7 SW 13 23 - - 0.2 - - - - - - -
28/12:00pm 12.3 WSW 13 19 - - 0.2 - - - - - - -
28/11:30am 11.6 SW 13 22 - - 0.2 - - - - - - -
28/11:15am 11.3 SSW 15 26 - - 0.2 - - - - - - -
28/11:00am 11.2 SW 13 20 - - 0.2 - - - - - - -
28/10:30am 10.9 SSW 7 11 - - 0.2 - - - - - - -
28/10:00am 9.8 WSW 11 15 - - 0.2 - - - - - - -
28/09:30am 9.7 WSW 17 23 - - 0.0 - - - - - - -
28/09:00am 11.2 SSW 13 22 - - 0.6 Recent precip. - - - - - -
28/08:30am 10.8 SW 9 15 - - 0.4 - - - - - - -

Other Formats:

Comma delimited format used in spreadsheet applications
http://www.bom.gov.au/fwo/IDV60701/IDV60701.94846.axf

JavaScript Object Notation format (JSON) in row-major order
http://www.bom.gov.au/fwo/IDV60701/IDV60701.94846.json